createdAt,value
2023-01-17T00:02:17.283Z,0.40
2023-01-17T00:05:04.036Z,0.43
2023-01-17T00:07:51.223Z,0.43
2023-01-17T00:13:22.643Z,0.60
2023-01-17T00:15:50.398Z,0.38
2023-01-17T00:18:17.993Z,0.38
2023-01-17T00:21:04.010Z,0.40
2023-01-17T00:23:59.287Z,0.50
2023-01-17T00:26:27.602Z,0.70
2023-01-17T00:28:55.237Z,0.70
2023-01-17T00:31:22.800Z,0.40
2023-01-17T00:33:50.412Z,0.40
2023-01-17T00:36:17.956Z,0.30
2023-01-17T00:38:45.457Z,0.50
2023-01-17T00:41:15.243Z,0.40
2023-01-17T00:44:42.359Z,0.60
2023-01-17T00:47:28.701Z,0.67
2023-01-17T00:50:14.838Z,0.70
2023-01-17T00:53:01.019Z,0.40
2023-01-17T00:55:47.112Z,0.32
2023-01-17T00:58:39.406Z,0.60
2023-01-17T01:01:26.229Z,0.50
2023-01-17T01:04:12.445Z,0.73
2023-01-17T01:06:58.558Z,0.60
2023-01-17T01:09:44.611Z,0.30
2023-01-17T01:12:30.525Z,0.30
2023-01-17T01:15:16.815Z,0.30
2023-01-17T01:18:02.973Z,0.20
2023-01-17T01:20:49.083Z,0.35
2023-01-17T01:23:35.129Z,0.20
2023-01-17T01:26:22.760Z,0.20
2023-01-17T01:29:08.794Z,0.30
2023-01-17T01:31:55.166Z,0.30
2023-01-17T01:34:23.168Z,0.45
2023-01-17T01:36:50.751Z,0.25
2023-01-17T01:39:18.393Z,0.30
2023-01-17T01:41:45.986Z,0.20
2023-01-17T01:44:49.051Z,0.30
2023-01-17T01:47:33.715Z,0.30
2023-01-17T01:50:05.810Z,0.20
2023-01-17T01:52:37.039Z,0.20
2023-01-17T01:55:09.703Z,0.43
2023-01-17T01:57:42.568Z,0.30
2023-01-17T02:00:21.679Z,0.20
2023-01-17T02:02:51.758Z,0.30
2023-01-17T02:05:22.711Z,0.30
2023-01-17T02:08:04.966Z,0.30
2023-01-17T02:10:37.804Z,0.20
2023-01-17T02:13:06.881Z,0.30
2023-01-17T02:15:53.080Z,0.30
2023-01-17T02:18:45.606Z,0.30
2023-01-17T02:21:27.253Z,0.10
2023-01-17T02:24:30.139Z,0.22
2023-01-17T02:27:08.004Z,0.20
2023-01-17T02:29:54.334Z,0.35
2023-01-17T02:33:16.450Z,0.10
2023-01-17T02:35:49.504Z,0.10
2023-01-17T02:38:45.212Z,0.10
2023-01-17T02:41:35.739Z,0.28
2023-01-17T02:44:04.350Z,0.28
2023-01-17T02:46:31.994Z,0.15
2023-01-17T02:49:00.675Z,0.30
2023-01-17T02:51:39.317Z,0.38
2023-01-17T02:54:35.172Z,0.20
2023-01-17T02:57:28.259Z,0.40
2023-01-17T03:00:06.851Z,0.40
2023-01-17T03:02:58.246Z,0.30
2023-01-17T03:05:31.637Z,0.30
2023-01-17T03:08:00.523Z,0.30
2023-01-17T03:10:30.294Z,0.43
2023-01-17T03:13:01.148Z,0.50
2023-01-17T03:15:28.810Z,0.20
2023-01-17T03:18:00.953Z,0.40
2023-01-17T03:20:28.556Z,0.30
2023-01-17T03:27:08.761Z,0.30
2023-01-17T03:29:36.426Z,0.10
2023-01-17T03:32:04.124Z,0.13
2023-01-17T03:34:31.796Z,0.10
2023-01-17T03:36:59.389Z,0.30
2023-01-17T03:39:26.969Z,0.10
2023-01-17T03:41:54.586Z,0.10
2023-01-17T03:44:22.238Z,0.13
2023-01-17T03:46:49.808Z,0.17
2023-01-17T03:49:17.424Z,0.10
2023-01-17T03:51:45.056Z,0.10
2023-01-17T03:54:12.633Z,0.10
2023-01-17T03:56:40.617Z,0.00
2023-01-17T03:59:08.342Z,0.20
2023-01-17T04:01:35.916Z,0.10
2023-01-17T04:04:03.666Z,0.10
2023-01-17T04:06:31.267Z,0.10
2023-01-17T04:08:58.883Z,0.20
2023-01-17T04:11:26.509Z,0.00
2023-01-17T04:13:55.306Z,0.10
2023-01-17T04:16:28.199Z,0.20
2023-01-17T04:18:56.501Z,0.10
2023-01-17T04:21:24.112Z,0.10
2023-01-17T04:23:52.009Z,0.20
2023-01-17T04:26:19.669Z,0.20
2023-01-17T04:28:47.436Z,0.15
2023-01-17T04:31:17.542Z,0.10
2023-01-17T04:33:45.284Z,0.03
2023-01-17T04:36:12.922Z,0.13
2023-01-17T04:38:40.647Z,0.30
2023-01-17T04:41:08.221Z,0.20
2023-01-17T04:43:36.133Z,0.17
2023-01-17T04:46:05.934Z,0.10
2023-01-17T04:48:33.546Z,0.10
2023-01-17T04:51:02.799Z,0.30
2023-01-17T04:53:30.498Z,0.30
2023-01-17T04:55:58.453Z,0.23
2023-01-17T04:58:26.615Z,0.20
2023-01-17T05:00:55.438Z,0.10
2023-01-17T05:03:23.568Z,0.20
2023-01-17T05:05:51.201Z,0.17
2023-01-17T05:08:18.895Z,0.20
2023-01-17T05:10:47.303Z,0.10
2023-01-17T05:13:15.161Z,0.10
2023-01-17T05:15:42.761Z,0.20
2023-01-17T05:18:15.237Z,0.10
2023-01-17T05:20:43.209Z,0.10
2023-01-17T05:23:11.417Z,0.00
2023-01-17T05:25:44.482Z,0.10
2023-01-17T05:28:13.140Z,0.20
2023-01-17T05:30:40.806Z,0.20
2023-01-17T05:33:10.294Z,0.10
2023-01-17T05:35:38.459Z,0.17
2023-01-17T05:38:06.156Z,0.20
2023-01-17T05:40:34.235Z,0.10
2023-01-17T05:43:03.416Z,0.10
2023-01-17T05:45:33.392Z,0.03
2023-01-17T05:48:01.837Z,0.15
2023-01-17T05:50:32.719Z,0.10
2023-01-17T05:53:03.505Z,0.10
2023-01-17T05:55:31.801Z,0.10
2023-01-17T05:57:59.881Z,0.10
2023-01-17T06:00:27.880Z,0.25
2023-01-17T06:02:57.261Z,0.20
2023-01-17T06:05:25.708Z,0.10
2023-01-17T06:07:54.142Z,0.10
2023-01-17T06:10:22.315Z,0.30
2023-01-17T06:12:50.812Z,0.20
2023-01-17T06:15:18.900Z,0.20
2023-01-17T06:17:46.635Z,0.25
2023-01-17T06:20:14.297Z,0.10
2023-01-17T06:22:41.891Z,0.20
2023-01-17T06:25:10.271Z,0.30
2023-01-17T06:27:37.909Z,0.20
2023-01-17T06:30:06.227Z,0.30
2023-01-17T06:32:33.882Z,0.40
2023-01-17T06:35:01.420Z,0.40
2023-01-17T06:37:28.961Z,0.32
2023-01-17T06:39:56.660Z,0.63
2023-01-17T06:42:24.228Z,0.40
2023-01-17T06:44:51.786Z,0.40
2023-01-17T06:47:19.311Z,0.43
2023-01-17T06:49:47.065Z,0.50
2023-01-17T06:52:16.096Z,0.22
2023-01-17T06:54:43.680Z,0.40
2023-01-17T06:57:11.236Z,0.65
2023-01-17T06:59:38.874Z,0.60
2023-01-17T07:02:06.415Z,0.20
2023-01-17T07:04:34.820Z,0.73
2023-01-17T07:07:02.636Z,0.60
2023-01-17T07:09:30.271Z,0.70
2023-01-17T07:12:02.013Z,0.30
2023-01-17T07:14:29.699Z,0.40
2023-01-17T07:16:57.655Z,0.63
2023-01-17T07:19:26.090Z,0.77
2023-01-17T07:21:54.615Z,0.95
2023-01-17T07:24:22.302Z,0.73
2023-01-17T07:26:51.192Z,1.13
2023-01-17T07:29:19.139Z,0.73
2023-01-17T07:31:48.961Z,0.88
2023-01-17T07:34:16.663Z,0.80
2023-01-17T07:36:44.355Z,0.63
2023-01-17T07:39:12.088Z,0.52
2023-01-17T07:41:41.514Z,0.70
2023-01-17T07:44:10.946Z,0.80
2023-01-17T07:46:38.662Z,0.90
2023-01-17T07:49:06.630Z,0.73
2023-01-17T07:51:34.425Z,0.50
2023-01-17T07:54:02.080Z,0.70
2023-01-17T07:56:29.720Z,0.85
2023-01-17T07:58:57.317Z,0.75
2023-01-17T08:01:24.936Z,0.80
2023-01-17T08:03:54.957Z,0.93
2023-01-17T08:06:25.065Z,0.60
2023-01-17T08:08:59.137Z,0.80
2023-01-17T08:11:27.144Z,0.63
2023-01-17T08:13:59.532Z,0.80
2023-01-17T08:16:28.868Z,0.82
2023-01-17T08:18:57.290Z,0.60
2023-01-17T08:21:25.085Z,0.55
2023-01-17T08:23:53.009Z,0.90
2023-01-17T08:26:22.435Z,0.80
2023-01-17T08:28:56.249Z,0.75
2023-01-17T08:31:24.716Z,0.73
2023-01-17T08:33:52.469Z,0.80
2023-01-17T08:36:20.237Z,0.70
2023-01-17T08:38:51.042Z,0.83
2023-01-17T08:41:19.930Z,0.80
2023-01-17T08:43:51.912Z,0.80
2023-01-17T08:46:20.045Z,0.80
2023-01-17T08:48:47.603Z,0.90
2023-01-17T08:51:15.193Z,0.60
2023-01-17T08:53:42.903Z,0.60
2023-01-17T08:56:10.619Z,0.90
2023-01-17T08:58:38.148Z,1.00
2023-01-17T09:01:06.636Z,0.68
2023-01-17T09:03:34.907Z,0.80
2023-01-17T09:06:12.989Z,0.80
2023-01-17T09:08:41.280Z,0.70
2023-01-17T09:11:11.719Z,1.10
2023-01-17T09:13:39.844Z,1.10
2023-01-17T09:16:08.175Z,0.80
2023-01-17T09:18:36.592Z,0.98
2023-01-17T09:21:16.695Z,1.10
2023-01-17T09:23:44.623Z,1.15
2023-01-17T09:26:32.600Z,1.20
2023-01-17T09:29:00.540Z,1.07
2023-01-17T09:31:28.337Z,1.33
2023-01-17T09:33:56.972Z,0.80
2023-01-17T09:36:29.280Z,1.10
2023-01-17T09:39:01.227Z,0.75
2023-01-17T09:41:44.263Z,1.40
2023-01-17T09:44:34.454Z,1.00
2023-01-17T09:47:20.033Z,0.85
2023-01-17T09:49:49.183Z,0.63
2023-01-17T09:52:21.133Z,0.90
2023-01-17T09:54:52.868Z,0.83
2023-01-17T09:57:46.033Z,1.23
2023-01-17T10:00:26.142Z,1.00
2023-01-17T10:03:00.874Z,0.88
2023-01-17T10:05:28.517Z,1.10
2023-01-17T10:08:13.050Z,0.60
2023-01-17T10:10:43.307Z,1.27
2023-01-17T10:13:26.392Z,1.15
2023-01-17T10:16:24.313Z,2.03
2023-01-17T10:19:29.441Z,1.77
2023-01-17T10:22:32.107Z,1.27
2023-01-17T10:25:21.501Z,1.52
2023-01-17T10:28:06.705Z,0.85
2023-01-17T10:30:38.382Z,0.93
2023-01-17T10:33:41.745Z,0.88
2023-01-17T10:36:20.767Z,0.77
2023-01-17T10:38:55.153Z,0.52
2023-01-17T10:41:27.762Z,0.50
2023-01-17T10:44:08.260Z,0.57
2023-01-17T10:46:43.524Z,0.50
2023-01-17T10:49:20.311Z,0.40
2023-01-17T10:52:22.490Z,0.50
2023-01-17T10:55:09.667Z,0.70
2023-01-17T10:57:49.073Z,0.50
2023-01-17T11:00:40.210Z,0.60
2023-01-17T11:03:11.186Z,0.40
2023-01-17T11:05:41.259Z,0.47
2023-01-17T11:08:14.657Z,0.30
2023-01-17T11:10:43.709Z,0.52
2023-01-17T11:13:31.021Z,0.70
2023-01-17T11:16:06.529Z,0.53
2023-01-17T11:18:39.872Z,0.40
2023-01-17T11:21:17.560Z,1.23
2023-01-17T11:23:48.804Z,2.17
2023-01-17T11:26:48.094Z,2.22
2023-01-17T11:29:28.487Z,1.23
2023-01-17T11:31:56.469Z,1.02
2023-01-17T11:34:27.222Z,1.20
2023-01-17T11:37:20.688Z,1.23
2023-01-17T11:39:48.640Z,1.77
2023-01-17T11:42:32.700Z,1.80
2023-01-17T11:45:27.197Z,2.10
2023-01-17T11:48:12.786Z,1.83
2023-01-17T11:50:44.907Z,0.75
2023-01-17T11:53:12.444Z,0.80
2023-01-17T11:55:40.803Z,0.50
2023-01-17T11:58:15.222Z,0.30
2023-01-17T12:00:46.810Z,0.40
2023-01-17T12:03:41.451Z,0.63
2023-01-17T12:06:34.429Z,0.40
2023-01-17T12:09:34.124Z,0.50
2023-01-17T12:12:44.748Z,0.70
2023-01-17T12:23:50.940Z,0.70
2023-01-17T12:26:52.489Z,0.60
2023-01-17T12:33:47.193Z,0.40
2023-01-17T12:45:38.174Z,0.10
2023-01-17T12:48:29.979Z,0.10
2023-01-17T12:51:07.048Z,0.30
2023-01-17T12:53:34.590Z,0.20
2023-01-17T12:57:16.379Z,0.20
2023-01-17T13:00:19.660Z,0.10
2023-01-17T13:03:41.562Z,0.20
2023-01-17T13:06:22.534Z,0.20
2023-01-17T13:08:56.910Z,0.10
2023-01-17T13:11:41.142Z,0.10
2023-01-17T13:14:10.450Z,0.10
2023-01-17T13:17:09.309Z,0.10
2023-01-17T13:19:36.845Z,0.20
2023-01-17T13:22:17.512Z,0.20
2023-01-17T13:24:55.769Z,0.10
2023-01-17T13:27:35.289Z,0.20
2023-01-17T13:30:15.462Z,0.10
2023-01-17T13:32:58.024Z,0.10
2023-01-17T13:35:43.060Z,0.08
2023-01-17T13:38:29.120Z,0.10
2023-01-17T13:41:12.340Z,0.10
2023-01-17T13:44:05.234Z,0.03
2023-01-17T13:47:12.610Z,0.30
2023-01-17T13:49:46.236Z,0.10
2023-01-17T13:52:19.833Z,0.20
2023-01-17T13:54:50.439Z,0.10
2023-01-17T13:57:29.547Z,0.10
2023-01-17T13:59:59.834Z,0.10
2023-01-17T14:06:46.883Z,0.20
2023-01-17T14:09:42.710Z,0.20
2023-01-17T14:12:16.332Z,0.20
2023-01-17T14:14:49.790Z,0.20
2023-01-17T14:17:25.598Z,0.20
2023-01-17T14:20:06.131Z,0.70
2023-01-17T14:22:37.701Z,0.30
2023-01-17T14:25:23.757Z,0.30
2023-01-17T14:28:04.394Z,0.30
2023-01-17T14:30:31.973Z,0.22
2023-01-17T14:33:00.847Z,0.20
2023-01-17T14:35:48.928Z,0.10
2023-01-17T14:38:21.840Z,0.17
2023-01-17T14:40:57.504Z,0.20
2023-01-17T14:43:28.193Z,0.10
2023-01-17T14:45:58.802Z,0.10
2023-01-17T14:48:26.666Z,0.10
2023-01-17T14:50:57.511Z,0.10
2023-01-17T14:53:28.324Z,0.20
2023-01-17T14:56:12.832Z,0.10
2023-01-17T14:58:41.514Z,0.10
2023-01-17T15:01:14.757Z,0.00
2023-01-17T15:03:51.427Z,0.10
2023-01-17T15:06:27.815Z,0.20
2023-01-17T15:08:55.569Z,0.10
2023-01-17T15:11:26.877Z,0.15
2023-01-17T15:13:57.844Z,0.00
2023-01-17T15:16:28.575Z,0.10
2023-01-17T15:22:45.304Z,0.25
2023-01-17T15:25:15.413Z,0.10
2023-01-17T15:31:58.209Z,0.10
2023-01-17T15:37:40.037Z,0.20
2023-01-17T15:40:18.871Z,0.10
2023-01-17T15:42:52.071Z,0.00
2023-01-17T15:45:25.402Z,0.15
2023-01-17T15:47:53.016Z,0.10
2023-01-17T15:50:20.768Z,0.10
2023-01-17T15:52:50.693Z,0.13
2023-01-17T15:55:37.107Z,0.47
2023-01-17T15:58:22.954Z,0.32
2023-01-17T16:00:50.931Z,0.52
2023-01-17T16:03:29.936Z,0.30
2023-01-17T16:06:02.708Z,0.55
2023-01-17T16:08:52.390Z,0.60
2023-01-17T16:11:21.825Z,0.30
2023-01-17T16:31:23.959Z,0.35
2023-01-17T16:33:52.100Z,0.40
2023-01-17T16:36:31.938Z,0.60
2023-01-17T16:38:59.646Z,0.63
2023-01-17T16:41:27.320Z,1.50
2023-01-17T16:44:03.539Z,1.77
2023-01-17T16:46:31.366Z,0.95
2023-01-17T16:49:00.094Z,1.50
2023-01-17T16:51:27.788Z,1.27
2023-01-17T16:53:55.629Z,0.70
2023-01-17T16:56:23.280Z,0.90
2023-01-17T16:58:53.175Z,0.50
2023-01-17T17:01:22.790Z,0.30
2023-01-17T17:03:50.699Z,0.32
2023-01-17T17:06:18.418Z,0.30
2023-01-17T17:08:46.193Z,0.40
2023-01-17T17:11:17.530Z,0.65
2023-01-17T17:13:47.267Z,0.40
2023-01-17T17:16:18.868Z,0.30
2023-01-17T17:18:54.863Z,0.30
2023-01-17T17:21:22.598Z,0.32
2023-01-17T17:23:58.684Z,0.20
2023-01-17T17:26:31.499Z,0.30
2023-01-17T17:28:59.239Z,0.50
2023-01-17T17:31:27.310Z,0.23
2023-01-17T17:33:59.499Z,0.60
2023-01-17T17:36:27.323Z,0.95
2023-01-17T17:38:56.689Z,1.00
2023-01-17T17:41:44.783Z,0.60
2023-01-17T17:44:12.653Z,0.23
2023-01-17T17:46:42.261Z,0.30
2023-01-17T17:49:09.966Z,0.30
2023-01-17T17:51:39.827Z,0.38
2023-01-17T17:54:10.382Z,0.28
2023-01-17T17:56:39.068Z,0.40
2023-01-17T18:02:11.903Z,0.30
2023-01-17T18:04:39.662Z,0.22
2023-01-17T18:07:07.253Z,0.60
2023-01-17T18:10:49.388Z,0.50
2023-01-17T18:13:42.817Z,0.70
2023-01-17T18:16:37.177Z,0.82
2023-01-17T18:19:06.391Z,1.80
2023-01-17T18:21:36.975Z,1.33
2023-01-17T18:24:13.750Z,1.87
2023-01-17T18:26:44.469Z,5.63
2023-01-17T18:29:15.855Z,4.13
2023-01-17T18:31:48.040Z,1.88
2023-01-17T18:34:19.360Z,0.50
2023-01-17T18:36:47.193Z,0.30
2023-01-17T18:39:21.016Z,0.20
2023-01-17T18:41:49.735Z,0.30
2023-01-17T18:44:18.396Z,0.28
2023-01-17T18:46:48.071Z,0.20
2023-01-17T18:49:18.418Z,0.20
2023-01-17T18:51:50.444Z,0.10
2023-01-17T18:54:20.019Z,0.22
2023-01-17T18:56:48.117Z,0.20
2023-01-17T18:59:18.615Z,0.20
2023-01-17T19:01:46.599Z,0.30
2023-01-17T19:04:16.012Z,0.40
2023-01-17T19:06:46.837Z,0.90
2023-01-17T19:09:15.622Z,0.90
2023-01-17T19:11:45.149Z,0.73
2023-01-17T19:14:13.144Z,0.90
2023-01-17T19:16:42.065Z,0.60
2023-01-17T19:19:12.802Z,0.35
2023-01-17T19:21:40.537Z,0.32
2023-01-17T19:24:10.063Z,0.40
2023-01-17T19:26:37.820Z,0.40
2023-01-17T19:29:06.819Z,0.40
2023-01-17T19:31:43.363Z,0.50
2023-01-17T19:34:14.046Z,0.40
2023-01-17T19:36:41.971Z,0.77
2023-01-17T19:39:09.947Z,0.83
2023-01-17T19:41:42.314Z,2.90
2023-01-17T19:44:12.032Z,3.50
2023-01-17T19:46:39.878Z,2.00
2023-01-17T19:49:09.028Z,1.30
2023-01-17T19:51:36.828Z,1.10
2023-01-17T19:54:06.527Z,1.30
2023-01-17T19:56:34.547Z,1.58
2023-01-17T19:59:02.476Z,1.20
2023-01-17T20:01:32.999Z,0.70
2023-01-17T20:04:02.078Z,0.77
2023-01-17T20:06:33.743Z,0.40
2023-01-17T20:09:01.573Z,0.60
2023-01-17T20:11:29.220Z,0.25
2023-01-17T20:13:58.566Z,0.80
2023-01-17T20:16:28.876Z,0.77
2023-01-17T20:18:58.465Z,0.77
2023-01-17T20:21:28.240Z,0.32
2023-01-17T20:23:57.833Z,0.32
2023-01-17T20:26:31.313Z,0.43
2023-01-17T20:28:58.963Z,0.17
2023-01-17T20:31:27.498Z,0.20
2023-01-17T20:33:56.324Z,0.50
2023-01-17T20:36:26.754Z,0.50
2023-01-17T20:38:54.723Z,0.60
2023-01-17T20:41:43.953Z,0.57
2023-01-17T20:44:16.192Z,0.50
2023-01-17T20:46:44.524Z,0.40
2023-01-17T20:49:18.813Z,0.40
2023-01-17T20:51:47.766Z,1.20
2023-01-17T20:54:18.245Z,5.57
2023-01-17T20:56:47.621Z,0.90
2023-01-17T20:59:18.332Z,1.10
2023-01-17T21:01:46.420Z,1.30
2023-01-17T21:04:15.109Z,1.33
2023-01-17T21:06:44.095Z,0.90
2023-01-17T21:09:15.147Z,1.95
2023-01-17T21:11:43.109Z,1.10
2023-01-17T21:14:10.770Z,0.73
2023-01-17T21:16:38.491Z,1.10
2023-01-17T21:19:06.336Z,0.97
2023-01-17T21:21:34.056Z,0.70
2023-01-17T21:24:01.609Z,0.70
2023-01-17T21:26:29.284Z,0.70
2023-01-17T21:29:00.165Z,0.32
2023-01-17T21:31:34.846Z,0.30
2023-01-17T21:34:05.707Z,0.20
2023-01-17T21:36:35.607Z,0.30
2023-01-17T21:39:06.940Z,0.55
2023-01-17T21:41:41.109Z,0.30
2023-01-17T21:44:15.112Z,0.27
2023-01-17T21:46:43.595Z,0.20
2023-01-17T21:49:15.463Z,0.15
2023-01-17T21:51:52.912Z,0.47
2023-01-17T21:54:44.434Z,0.32
2023-01-17T21:57:36.344Z,0.10
2023-01-17T22:00:09.270Z,0.30
2023-01-17T22:02:41.227Z,0.20
2023-01-17T22:05:10.502Z,0.13
2023-01-17T22:07:39.185Z,0.17
2023-01-17T22:10:07.817Z,0.10
2023-01-17T22:12:35.390Z,0.20
2023-01-17T22:15:04.217Z,0.30
2023-01-17T22:17:31.949Z,0.30
2023-01-17T22:19:59.539Z,0.43
2023-01-17T22:22:27.083Z,0.17
2023-01-17T22:24:54.615Z,0.30
2023-01-17T22:27:22.350Z,0.30
2023-01-17T22:29:49.925Z,0.20
2023-01-17T22:32:17.650Z,0.25
2023-01-17T22:34:45.204Z,0.17
2023-01-17T22:37:12.823Z,0.40
2023-01-17T22:39:40.416Z,0.20
2023-01-17T22:42:08.546Z,0.20
2023-01-17T22:44:36.147Z,0.10
2023-01-17T22:47:03.888Z,0.43
2023-01-17T22:49:31.482Z,0.20
2023-01-17T22:51:59.109Z,0.20
2023-01-17T22:54:27.063Z,0.20
2023-01-17T22:56:54.644Z,0.45
2023-01-17T22:59:22.271Z,0.50
2023-01-17T23:01:50.076Z,0.20
2023-01-17T23:04:17.667Z,0.20
2023-01-17T23:06:45.284Z,0.40
2023-01-17T23:09:15.441Z,0.20
2023-01-17T23:11:46.326Z,0.30
2023-01-17T23:14:30.425Z,0.20
2023-01-17T23:17:22.230Z,0.10
2023-01-17T23:19:52.515Z,0.22
2023-01-17T23:22:23.196Z,0.38
2023-01-17T23:24:56.313Z,0.30
2023-01-17T23:28:00.844Z,0.30
2023-01-17T23:30:34.540Z,0.30
2023-01-17T23:33:07.841Z,0.45
2023-01-17T23:35:42.129Z,0.43
2023-01-17T23:38:28.630Z,0.40
2023-01-17T23:41:19.783Z,0.30
2023-01-17T23:43:55.411Z,0.13
2023-01-17T23:46:25.490Z,0.60
2023-01-17T23:48:53.181Z,0.13
2023-01-17T23:51:20.766Z,0.53
2023-01-17T23:53:48.432Z,1.00
2023-01-17T23:56:23.149Z,0.20
2023-01-17T23:58:50.945Z,0.10
